sensor_id;sensor_type;location;lat;lon;timestamp;temperature;humidity
42135;DHT22;28312;43.460;11.810;2024-03-23T00:54:10;7.80;62.20
42135;DHT22;28312;43.460;11.810;2024-03-23T00:58:13;7.80;62.20
42135;DHT22;28312;43.460;11.810;2024-03-23T01:02:16;7.70;62.20
42135;DHT22;28312;43.460;11.810;2024-03-23T01:06:18;7.80;62.30
42135;DHT22;28312;43.460;11.810;2024-03-23T01:10:22;7.70;62.40
42135;DHT22;28312;43.460;11.810;2024-03-23T01:14:24;7.70;62.50
42135;DHT22;28312;43.460;11.810;2024-03-23T01:18:27;7.60;62.50
42135;DHT22;28312;43.460;11.810;2024-03-23T01:22:29;7.60;62.60
42135;DHT22;28312;43.460;11.810;2024-03-23T01:26:32;7.50;62.70
42135;DHT22;28312;43.460;11.810;2024-03-23T01:30:35;7.60;62.70
42135;DHT22;28312;43.460;11.810;2024-03-23T01:34:37;7.50;62.80
42135;DHT22;28312;43.460;11.810;2024-03-23T01:38:40;7.50;62.80
42135;DHT22;28312;43.460;11.810;2024-03-23T01:43:07;7.40;62.80
42135;DHT22;28312;43.460;11.810;2024-03-23T01:47:12;7.30;63.10
42135;DHT22;28312;43.460;11.810;2024-03-23T01:51:15;7.30;62.80
42135;DHT22;28312;43.460;11.810;2024-03-23T01:55:18;7.30;62.80
42135;DHT22;28312;43.460;11.810;2024-03-23T01:59:21;7.20;62.90
42135;DHT22;28312;43.460;11.810;2024-03-23T02:03:24;7.10;63.10
42135;DHT22;28312;43.460;11.810;2024-03-23T02:07:28;7.10;63.10
42135;DHT22;28312;43.460;11.810;2024-03-23T02:11:30;7.10;63.20
42135;DHT22;28312;43.460;11.810;2024-03-23T02:15:32;7.00;63.30
42135;DHT22;28312;43.460;11.810;2024-03-23T02:19:36;7.00;63.40
42135;DHT22;28312;43.460;11.810;2024-03-23T02:23:38;6.90;63.50
42135;DHT22;28312;43.460;11.810;2024-03-23T02:27:40;6.90;63.60
42135;DHT22;28312;43.460;11.810;2024-03-23T02:31:43;6.90;63.50
42135;DHT22;28312;43.460;11.810;2024-03-23T02:35:45;6.80;63.50
42135;DHT22;28312;43.460;11.810;2024-03-23T02:39:48;6.70;63.60
42135;DHT22;28312;43.460;11.810;2024-03-23T02:43:50;6.80;63.50
42135;DHT22;28312;43.460;11.810;2024-03-23T02:47:53;6.70;63.60
42135;DHT22;28312;43.460;11.810;2024-03-23T02:51:55;6.70;63.60
42135;DHT22;28312;43.460;11.810;2024-03-23T02:55:58;6.70;63.80
42135;DHT22;28312;43.460;11.810;2024-03-23T03:00:01;6.60;64.00
42135;DHT22;28312;43.460;11.810;2024-03-23T03:04:03;6.60;63.90
42135;DHT22;28312;43.460;11.810;2024-03-23T03:08:07;6.60;63.80
42135;DHT22;28312;43.460;11.810;2024-03-23T03:12:09;6.60;63.80
42135;DHT22;28312;43.460;11.810;2024-03-23T03:16:13;6.40;63.90
42135;DHT22;28312;43.460;11.810;2024-03-23T03:20:16;6.30;64.10
42135;DHT22;28312;43.460;11.810;2024-03-23T03:24:21;6.20;64.10
42135;DHT22;28312;43.460;11.810;2024-03-23T03:28:24;6.10;64.40
42135;DHT22;28312;43.460;11.810;2024-03-23T03:32:29;6.00;64.30
42135;DHT22;28312;43.460;11.810;2024-03-23T03:36:31;5.90;64.50
42135;DHT22;28312;43.460;11.810;2024-03-23T03:40:34;5.80;64.50
42135;DHT22;28312;43.460;11.810;2024-03-23T03:44:36;5.80;64.40
42135;DHT22;28312;43.460;11.810;2024-03-23T03:48:38;5.90;64.40
42135;DHT22;28312;43.460;11.810;2024-03-23T03:52:41;5.80;64.40
42135;DHT22;28312;43.460;11.810;2024-03-23T03:56:43;5.70;64.50
42135;DHT22;28312;43.460;11.810;2024-03-23T04:00:48;5.70;64.60
42135;DHT22;28312;43.460;11.810;2024-03-23T04:04:51;5.60;64.60
42135;DHT22;28312;43.460;11.810;2024-03-23T04:08:53;5.50;64.80
42135;DHT22;28312;43.460;11.810;2024-03-23T04:12:56;5.50;64.90
42135;DHT22;28312;43.460;11.810;2024-03-23T04:16:59;5.60;64.90
42135;DHT22;28312;43.460;11.810;2024-03-23T04:21:02;5.70;64.90
42135;DHT22;28312;43.460;11.810;2024-03-23T04:25:05;5.70;64.90
42135;DHT22;28312;43.460;11.810;2024-03-23T04:29:08;5.70;64.80
42135;DHT22;28312;43.460;11.810;2024-03-23T04:33:11;5.70;64.90
42135;DHT22;28312;43.460;11.810;2024-03-23T04:37:14;5.80;64.90
42135;DHT22;28312;43.460;11.810;2024-03-23T04:41:16;5.70;65.00
42135;DHT22;28312;43.460;11.810;2024-03-23T04:45:19;5.70;65.20
42135;DHT22;28312;43.460;11.810;2024-03-23T04:49:21;5.70;65.10
42135;DHT22;28312;43.460;11.810;2024-03-23T04:53:25;5.70;65.20
42135;DHT22;28312;43.460;11.810;2024-03-23T04:57:30;5.70;65.20
42135;DHT22;28312;43.460;11.810;2024-03-23T05:01:33;5.70;65.10
42135;DHT22;28312;43.460;11.810;2024-03-23T05:05:38;5.70;65.00
42135;DHT22;28312;43.460;11.810;2024-03-23T05:09:41;5.70;65.00
42135;DHT22;28312;43.460;11.810;2024-03-23T05:13:44;5.70;65.00
42135;DHT22;28312;43.460;11.810;2024-03-23T05:17:47;5.60;65.00
42135;DHT22;28312;43.460;11.810;2024-03-23T05:21:49;5.70;65.20
42135;DHT22;28312;43.460;11.810;2024-03-23T05:25:52;5.70;65.30
42135;DHT22;28312;43.460;11.810;2024-03-23T05:29:58;5.60;65.60
42135;DHT22;28312;43.460;11.810;2024-03-23T05:34:00;5.70;65.90
42135;DHT22;28312;43.460;11.810;2024-03-23T05:38:03;5.80;66.10
42135;DHT22;28312;43.460;11.810;2024-03-23T05:42:05;6.00;66.30
42135;DHT22;28312;43.460;11.810;2024-03-23T05:46:08;6.20;66.30
42135;DHT22;28312;43.460;11.810;2024-03-23T05:50:11;6.30;66.50
42135;DHT22;28312;43.460;11.810;2024-03-23T05:54:14;6.60;66.70
42135;DHT22;28312;43.460;11.810;2024-03-23T05:58:18;6.90;66.70
42135;DHT22;28312;43.460;11.810;2024-03-23T06:02:24;7.20;66.70
42135;DHT22;28312;43.460;11.810;2024-03-23T06:06:26;7.60;66.70
42135;DHT22;28312;43.460;11.810;2024-03-23T06:10:29;7.80;66.60
42135;DHT22;28312;43.460;11.810;2024-03-23T06:14:31;8.10;66.60
42135;DHT22;28312;43.460;11.810;2024-03-23T06:18:35;8.30;66.80
42135;DHT22;28312;43.460;11.810;2024-03-23T06:22:37;8.60;66.90
42135;DHT22;28312;43.460;11.810;2024-03-23T06:26:39;8.90;66.70
42135;DHT22;28312;43.460;11.810;2024-03-23T06:30:42;9.20;66.70
42135;DHT22;28312;43.460;11.810;2024-03-23T06:34:45;9.40;66.80
42135;DHT22;28312;43.460;11.810;2024-03-23T06:38:47;9.60;66.90
42135;DHT22;28312;43.460;11.810;2024-03-23T06:42:50;9.80;66.80
42135;DHT22;28312;43.460;11.810;2024-03-23T06:46:52;10.00;66.70
42135;DHT22;28312;43.460;11.810;2024-03-23T06:50:59;10.20;66.60
42135;DHT22;28312;43.460;11.810;2024-03-23T06:55:01;10.40;66.80
42135;DHT22;28312;43.460;11.810;2024-03-23T06:59:07;10.60;66.60
42135;DHT22;28312;43.460;11.810;2024-03-23T07:03:09;10.70;66.70
42135;DHT22;28312;43.460;11.810;2024-03-23T07:07:12;10.90;66.70
42135;DHT22;28312;43.460;11.810;2024-03-23T07:11:24;11.00;66.80
42135;DHT22;28312;43.460;11.810;2024-03-23T07:15:27;11.10;67.10
42135;DHT22;28312;43.460;11.810;2024-03-23T07:19:29;11.20;67.10
42135;DHT22;28312;43.460;11.810;2024-03-23T07:23:32;11.50;67.40
42135;DHT22;28312;43.460;11.810;2024-03-23T07:27:35;11.70;66.70
42135;DHT22;28312;43.460;11.810;2024-03-23T07:31:37;11.70;66.50
42135;DHT22;28312;43.460;11.810;2024-03-23T07:35:40;11.80;66.60
42135;DHT22;28312;43.460;11.810;2024-03-23T07:39:43;11.80;66.70
42135;DHT22;28312;43.460;11.810;2024-03-23T07:43:47;11.90;67.10
42135;DHT22;28312;43.460;11.810;2024-03-23T07:47:50;12.10;66.80
42135;DHT22;28312;43.460;11.810;2024-03-23T07:51:53;12.20;66.80
42135;DHT22;28312;43.460;11.810;2024-03-23T07:56:05;12.30;66.70
42135;DHT22;28312;43.460;11.810;2024-03-23T08:00:08;12.40;66.30
42135;DHT22;28312;43.460;11.810;2024-03-23T08:04:11;12.40;66.50
42135;DHT22;28312;43.460;11.810;2024-03-23T08:08:14;12.50;66.80
42135;DHT22;28312;43.460;11.810;2024-03-23T08:12:18;12.70;67.20
42135;DHT22;28312;43.460;11.810;2024-03-23T08:16:21;13.00;67.10
42135;DHT22;28312;43.460;11.810;2024-03-23T08:20:24;13.30;66.80
42135;DHT22;28312;43.460;11.810;2024-03-23T08:24:26;13.60;67.30
42135;DHT22;28312;43.460;11.810;2024-03-23T08:28:31;14.20;67.70
42135;DHT22;28312;43.460;11.810;2024-03-23T08:32:34;15.00;66.80
42135;DHT22;28312;43.460;11.810;2024-03-23T08:36:39;15.60;66.00
42135;DHT22;28312;43.460;11.810;2024-03-23T08:40:41;15.80;65.40
42135;DHT22;28312;43.460;11.810;2024-03-23T08:44:44;16.10;65.60
42135;DHT22;28312;43.460;11.810;2024-03-23T08:48:48;16.40;65.40
42135;DHT22;28312;43.460;11.810;2024-03-23T08:52:51;16.60;65.60
42135;DHT22;28312;43.460;11.810;2024-03-23T08:56:53;17.00;65.80
42135;DHT22;28312;43.460;11.810;2024-03-23T09:00:57;17.40;65.00
42135;DHT22;28312;43.460;11.810;2024-03-23T09:05:05;17.80;65.20
42135;DHT22;28312;43.460;11.810;2024-03-23T09:09:08;18.20;64.30
42135;DHT22;28312;43.460;11.810;2024-03-23T09:13:10;18.40;64.20
42135;DHT22;28312;43.460;11.810;2024-03-23T09:17:13;18.70;64.40
42135;DHT22;28312;43.460;11.810;2024-03-23T09:21:16;19.10;63.90
42135;DHT22;28312;43.460;11.810;2024-03-23T09:25:18;19.40;63.60
42135;DHT22;28312;43.460;11.810;2024-03-23T09:29:21;19.70;63.10
42135;DHT22;28312;43.460;11.810;2024-03-23T09:33:23;20.10;63.50
42135;DHT22;28312;43.460;11.810;2024-03-23T09:37:26;20.30;62.80
42135;DHT22;28312;43.460;11.810;2024-03-23T09:41:30;20.60;62.40
42135;DHT22;28312;43.460;11.810;2024-03-23T09:45:34;20.80;61.30
42135;DHT22;28312;43.460;11.810;2024-03-23T09:49:39;20.60;59.80
42135;DHT22;28312;43.460;11.810;2024-03-23T09:53:43;20.20;59.70
42135;DHT22;28312;43.460;11.810;2024-03-23T09:57:46;19.90;59.40
42135;DHT22;28312;43.460;11.810;2024-03-23T10:01:48;19.90;60.40
42135;DHT22;28312;43.460;11.810;2024-03-23T10:06:02;20.20;59.90
42135;DHT22;28312;43.460;11.810;2024-03-23T10:10:10;20.40;58.20
42135;DHT22;28312;43.460;11.810;2024-03-23T10:14:29;20.70;58.60
42135;DHT22;28312;43.460;11.810;2024-03-23T10:18:32;20.90;57.40
42135;DHT22;28312;43.460;11.810;2024-03-23T10:22:39;20.90;56.80
42135;DHT22;28312;43.460;11.810;2024-03-23T10:26:41;21.00;56.30
42135;DHT22;28312;43.460;11.810;2024-03-23T10:30:44;21.20;55.80
42135;DHT22;28312;43.460;11.810;2024-03-23T10:34:46;21.50;55.30
42135;DHT22;28312;43.460;11.810;2024-03-23T10:38:50;21.10;55.40
42135;DHT22;28312;43.460;11.810;2024-03-23T10:42:58;21.00;55.60
42135;DHT22;28312;43.460;11.810;2024-03-23T10:47:02;21.10;55.70
42135;DHT22;28312;43.460;11.810;2024-03-23T10:51:07;21.20;55.50
42135;DHT22;28312;43.460;11.810;2024-03-23T10:55:11;21.20;55.50
42135;DHT22;28312;43.460;11.810;2024-03-23T10:59:15;21.20;54.30
42135;DHT22;28312;43.460;11.810;2024-03-23T11:03:34;21.10;54.60
42135;DHT22;28312;43.460;11.810;2024-03-23T11:07:38;21.10;54.00
42135;DHT22;28312;43.460;11.810;2024-03-23T11:11:43;21.10;54.20
42135;DHT22;28312;43.460;11.810;2024-03-23T11:15:46;21.20;54.40
42135;DHT22;28312;43.460;11.810;2024-03-23T11:19:59;21.40;54.20
42135;DHT22;28312;43.460;11.810;2024-03-23T11:24:14;21.50;54.00
42135;DHT22;28312;43.460;11.810;2024-03-23T11:28:17;21.60;53.20
42135;DHT22;28312;43.460;11.810;2024-03-23T11:32:19;21.60;53.00
42135;DHT22;28312;43.460;11.810;2024-03-23T11:36:23;21.80;53.70
42135;DHT22;28312;43.460;11.810;2024-03-23T11:40:25;22.10;54.40
42135;DHT22;28312;43.460;11.810;2024-03-23T11:44:28;22.30;54.40
42135;DHT22;28312;43.460;11.810;2024-03-23T11:48:31;22.60;53.50
42135;DHT22;28312;43.460;11.810;2024-03-23T11:52:33;22.60;53.10
42135;DHT22;28312;43.460;11.810;2024-03-23T11:56:36;22.60;51.60
42135;DHT22;28312;43.460;11.810;2024-03-23T12:00:39;22.50;51.70
42135;DHT22;28312;43.460;11.810;2024-03-23T12:04:42;22.20;51.30
42135;DHT22;28312;43.460;11.810;2024-03-23T12:08:45;21.90;51.50
42135;DHT22;28312;43.460;11.810;2024-03-23T12:13:08;21.80;51.80
42135;DHT22;28312;43.460;11.810;2024-03-23T12:17:15;21.60;50.80
42135;DHT22;28312;43.460;11.810;2024-03-23T12:21:17;21.20;51.00
42135;DHT22;28312;43.460;11.810;2024-03-23T12:25:20;20.80;50.80
42135;DHT22;28312;43.460;11.810;2024-03-23T12:29:23;20.50;51.40
42135;DHT22;28312;43.460;11.810;2024-03-23T12:33:25;20.20;51.80
42135;DHT22;28312;43.460;11.810;2024-03-23T12:37:28;20.00;52.00
42135;DHT22;28312;43.460;11.810;2024-03-23T12:41:30;19.80;52.60
42135;DHT22;28312;43.460;11.810;2024-03-23T12:45:33;19.80;52.80
42135;DHT22;28312;43.460;11.810;2024-03-23T12:49:35;19.70;53.10
42135;DHT22;28312;43.460;11.810;2024-03-23T12:53:38;19.70;53.20
42135;DHT22;28312;43.460;11.810;2024-03-23T12:57:41;19.70;53.40
42135;DHT22;28312;43.460;11.810;2024-03-23T13:01:43;19.70;53.50
42135;DHT22;28312;43.460;11.810;2024-03-23T13:05:52;19.70;53.40
42135;DHT22;28312;43.460;11.810;2024-03-23T13:09:54;19.60;53.60
42135;DHT22;28312;43.460;11.810;2024-03-23T13:13:58;19.50;53.80
42135;DHT22;28312;43.460;11.810;2024-03-23T13:18:01;19.60;54.00
42135;DHT22;28312;43.460;11.810;2024-03-23T13:22:03;19.60;54.00
42135;DHT22;28312;43.460;11.810;2024-03-23T13:26:06;19.50;54.10
42135;DHT22;28312;43.460;11.810;2024-03-23T13:30:10;19.70;54.70
42135;DHT22;28312;43.460;11.810;2024-03-23T13:34:13;19.80;54.60
42135;DHT22;28312;43.460;11.810;2024-03-23T13:38:20;20.10;54.90
42135;DHT22;28312;43.460;11.810;2024-03-23T13:42:22;20.40;54.20
42135;DHT22;28312;43.460;11.810;2024-03-23T13:46:28;20.20;53.70
42135;DHT22;28312;43.460;11.810;2024-03-23T13:50:30;20.00;53.80
42135;DHT22;28312;43.460;11.810;2024-03-23T13:54:32;19.70;53.90
42135;DHT22;28312;43.460;11.810;2024-03-23T13:58:35;19.50;54.20
42135;DHT22;28312;43.460;11.810;2024-03-23T14:02:37;19.30;54.50
42135;DHT22;28312;43.460;11.810;2024-03-23T14:06:39;19.10;54.80
42135;DHT22;28312;43.460;11.810;2024-03-23T14:10:43;19.10;55.20
42135;DHT22;28312;43.460;11.810;2024-03-23T14:14:47;19.20;55.50
42135;DHT22;28312;43.460;11.810;2024-03-23T14:18:49;19.30;55.30
42135;DHT22;28312;43.460;11.810;2024-03-23T14:22:53;19.30;55.30
42135;DHT22;28312;43.460;11.810;2024-03-23T14:26:56;19.40;55.20
42135;DHT22;28312;43.460;11.810;2024-03-23T14:30:58;19.50;55.30
42135;DHT22;28312;43.460;11.810;2024-03-23T14:35:02;19.60;55.00
42135;DHT22;28312;43.460;11.810;2024-03-23T14:39:05;20.00;54.80
42135;DHT22;28312;43.460;11.810;2024-03-23T14:43:07;20.20;53.80
42135;DHT22;28312;43.460;11.810;2024-03-23T14:47:09;20.20;53.30
42135;DHT22;28312;43.460;11.810;2024-03-23T14:51:13;19.90;53.30
42135;DHT22;28312;43.460;11.810;2024-03-23T14:55:15;19.80;53.70
42135;DHT22;28312;43.460;11.810;2024-03-23T14:59:19;19.60;53.80
42135;DHT22;28312;43.460;11.810;2024-03-23T15:03:22;19.50;53.90
42135;DHT22;28312;43.460;11.810;2024-03-23T15:07:25;19.40;54.40
42135;DHT22;28312;43.460;11.810;2024-03-23T15:11:28;19.50;54.50
42135;DHT22;28312;43.460;11.810;2024-03-23T15:15:31;19.60;55.10
42135;DHT22;28312;43.460;11.810;2024-03-23T15:19:33;19.90;54.80
42135;DHT22;28312;43.460;11.810;2024-03-23T15:23:35;20.10;54.50
42135;DHT22;28312;43.460;11.810;2024-03-23T15:27:38;20.20;54.40
42135;DHT22;28312;43.460;11.810;2024-03-23T15:31:41;20.20;54.60
42135;DHT22;28312;43.460;11.810;2024-03-23T15:35:45;20.30;54.50
42135;DHT22;28312;43.460;11.810;2024-03-23T15:39:47;20.20;54.10
42135;DHT22;28312;43.460;11.810;2024-03-23T15:43:50;19.90;54.40
42135;DHT22;28312;43.460;11.810;2024-03-23T15:47:53;19.60;54.30
42135;DHT22;28312;43.460;11.810;2024-03-23T15:51:55;19.20;54.80
42135;DHT22;28312;43.460;11.810;2024-03-23T15:56:00;19.00;55.00
42135;DHT22;28312;43.460;11.810;2024-03-23T16:00:03;18.90;55.40
42135;DHT22;28312;43.460;11.810;2024-03-23T16:04:15;18.80;55.50
42135;DHT22;28312;43.460;11.810;2024-03-23T16:08:18;18.60;55.70
42135;DHT22;28312;43.460;11.810;2024-03-23T16:12:20;18.40;55.80
42135;DHT22;28312;43.460;11.810;2024-03-23T16:16:23;18.30;56.40
42135;DHT22;28312;43.460;11.810;2024-03-23T16:20:25;18.30;56.90
42135;DHT22;28312;43.460;11.810;2024-03-23T16:24:28;18.40;57.20
42135;DHT22;28312;43.460;11.810;2024-03-23T16:28:32;18.50;57.30
42135;DHT22;28312;43.460;11.810;2024-03-23T16:32:35;18.60;57.20
42135;DHT22;28312;43.460;11.810;2024-03-23T16:36:39;18.50;57.30
42135;DHT22;28312;43.460;11.810;2024-03-23T16:40:42;18.40;57.30
42135;DHT22;28312;43.460;11.810;2024-03-23T16:44:44;18.30;57.30
42135;DHT22;28312;43.460;11.810;2024-03-23T16:48:46;18.20;57.30
42135;DHT22;28312;43.460;11.810;2024-03-23T16:52:49;17.90;57.50
42135;DHT22;28312;43.460;11.810;2024-03-23T16:56:51;17.70;57.80
42135;DHT22;28312;43.460;11.810;2024-03-23T17:00:54;17.50;58.30
42135;DHT22;28312;43.460;11.810;2024-03-23T17:04:58;17.30;58.50
42135;DHT22;28312;43.460;11.810;2024-03-23T17:09:01;17.10;58.80
42135;DHT22;28312;43.460;11.810;2024-03-23T17:13:05;17.00;59.10
42135;DHT22;28312;43.460;11.810;2024-03-23T17:17:07;16.90;59.40
42135;DHT22;28312;43.460;11.810;2024-03-23T17:21:10;16.70;59.60
42135;DHT22;28312;43.460;11.810;2024-03-23T17:25:12;16.60;60.00
42135;DHT22;28312;43.460;11.810;2024-03-23T17:29:15;16.50;60.30
42135;DHT22;28312;43.460;11.810;2024-03-23T17:33:17;16.30;60.60
42135;DHT22;28312;43.460;11.810;2024-03-23T17:37:20;16.20;61.10
42135;DHT22;28312;43.460;11.810;2024-03-23T17:41:25;16.00;61.50
42135;DHT22;28312;43.460;11.810;2024-03-23T17:45:29;15.80;61.60
42135;DHT22;28312;43.460;11.810;2024-03-23T17:49:32;15.70;61.70
42135;DHT22;28312;43.460;11.810;2024-03-23T17:53:40;15.60;62.00
42135;DHT22;28312;43.460;11.810;2024-03-23T17:57:43;15.50;62.30
42135;DHT22;28312;43.460;11.810;2024-03-23T18:01:45;15.30;62.30
42135;DHT22;28312;43.460;11.810;2024-03-23T18:05:48;15.20;62.30
42135;DHT22;28312;43.460;11.810;2024-03-23T18:09:50;15.10;62.40
42135;DHT22;28312;43.460;11.810;2024-03-23T18:13:53;15.00;62.50
42135;DHT22;28312;43.460;11.810;2024-03-23T18:17:56;14.90;62.60
42135;DHT22;28312;43.460;11.810;2024-03-23T18:21:58;14.80;62.70
42135;DHT22;28312;43.460;11.810;2024-03-23T18:26:01;14.70;62.70
42135;DHT22;28312;43.460;11.810;2024-03-23T18:30:04;14.50;62.80
42135;DHT22;28312;43.460;11.810;2024-03-23T18:34:07;14.40;62.80
42135;DHT22;28312;43.460;11.810;2024-03-23T18:38:10;14.30;63.00
42135;DHT22;28312;43.460;11.810;2024-03-23T18:42:12;14.30;63.30
42135;DHT22;28312;43.460;11.810;2024-03-23T18:46:16;14.20;63.50
42135;DHT22;28312;43.460;11.810;2024-03-23T18:50:19;14.20;63.60
42135;DHT22;28312;43.460;11.810;2024-03-23T18:54:22;14.10;63.70
42135;DHT22;28312;43.460;11.810;2024-03-23T18:58:24;14.10;63.80
42135;DHT22;28312;43.460;11.810;2024-03-23T19:02:27;14.10;63.80
42135;DHT22;28312;43.460;11.810;2024-03-23T19:06:29;13.90;63.60
42135;DHT22;28312;43.460;11.810;2024-03-23T19:10:32;13.90;63.50
42135;DHT22;28312;43.460;11.810;2024-03-23T19:14:34;13.70;63.50
42135;DHT22;28312;43.460;11.810;2024-03-23T19:18:37;13.70;63.60
42135;DHT22;28312;43.460;11.810;2024-03-23T19:22:39;13.50;64.10
42135;DHT22;28312;43.460;11.810;2024-03-23T19:26:44;13.40;64.20
42135;DHT22;28312;43.460;11.810;2024-03-23T19:30:53;13.20;64.40
42135;DHT22;28312;43.460;11.810;2024-03-23T19:34:56;13.20;64.50
42135;DHT22;28312;43.460;11.810;2024-03-23T19:38:58;13.00;64.60
42135;DHT22;28312;43.460;11.810;2024-03-23T19:43:02;12.90;64.90
42135;DHT22;28312;43.460;11.810;2024-03-23T19:47:04;12.70;65.00
42135;DHT22;28312;43.460;11.810;2024-03-23T19:51:07;12.70;65.10
42135;DHT22;28312;43.460;11.810;2024-03-23T19:55:09;12.60;65.10
42135;DHT22;28312;43.460;11.810;2024-03-23T19:59:12;12.40;65.20
42135;DHT22;28312;43.460;11.810;2024-03-23T20:03:14;12.30;65.40
42135;DHT22;28312;43.460;11.810;2024-03-23T20:07:17;12.20;65.50
42135;DHT22;28312;43.460;11.810;2024-03-23T20:11:26;12.20;65.70
42135;DHT22;28312;43.460;11.810;2024-03-23T20:15:28;12.20;66.10
42135;DHT22;28312;43.460;11.810;2024-03-23T20:19:31;12.10;66.30
42135;DHT22;28312;43.460;11.810;2024-03-23T20:23:34;12.10;66.60
42135;DHT22;28312;43.460;11.810;2024-03-23T20:27:39;12.10;67.00
42135;DHT22;28312;43.460;11.810;2024-03-23T20:31:41;12.10;67.10
42135;DHT22;28312;43.460;11.810;2024-03-23T20:35:47;12.10;67.20
42135;DHT22;28312;43.460;11.810;2024-03-23T20:39:53;12.10;67.60
42135;DHT22;28312;43.460;11.810;2024-03-23T20:43:56;12.00;67.60
42135;DHT22;28312;43.460;11.810;2024-03-23T20:47:59;12.00;67.70
42135;DHT22;28312;43.460;11.810;2024-03-23T20:52:02;12.00;68.00
42135;DHT22;28312;43.460;11.810;2024-03-23T20:56:04;12.10;68.20
42135;DHT22;28312;43.460;11.810;2024-03-23T21:00:07;12.20;68.50
42135;DHT22;28312;43.460;11.810;2024-03-23T21:04:10;12.20;68.40
42135;DHT22;28312;43.460;11.810;2024-03-23T21:08:13;12.20;68.50
42135;DHT22;28312;43.460;11.810;2024-03-23T21:12:16;12.20;68.70
42135;DHT22;28312;43.460;11.810;2024-03-23T21:16:18;12.20;68.70
42135;DHT22;28312;43.460;11.810;2024-03-23T21:20:21;12.30;69.20
42135;DHT22;28312;43.460;11.810;2024-03-23T21:24:24;12.20;69.30
42135;DHT22;28312;43.460;11.810;2024-03-23T21:28:27;12.30;69.60
42135;DHT22;28312;43.460;11.810;2024-03-23T21:32:31;12.30;70.10
42135;DHT22;28312;43.460;11.810;2024-03-23T21:36:34;12.30;70.30
42135;DHT22;28312;43.460;11.810;2024-03-23T21:40:36;12.30;70.80
42135;DHT22;28312;43.460;11.810;2024-03-23T21:44:39;12.30;70.70
42135;DHT22;28312;43.460;11.810;2024-03-23T21:48:42;12.30;70.90
42135;DHT22;28312;43.460;11.810;2024-03-23T21:52:44;12.30;70.60
42135;DHT22;28312;43.460;11.810;2024-03-23T21:56:46;12.30;70.30
42135;DHT22;28312;43.460;11.810;2024-03-23T22:00:49;12.20;70.30
42135;DHT22;28312;43.460;11.810;2024-03-23T22:04:52;12.20;70.70
42135;DHT22;28312;43.460;11.810;2024-03-23T22:08:55;12.10;71.30
42135;DHT22;28312;43.460;11.810;2024-03-23T22:12:57;12.00;71.60
42135;DHT22;28312;43.460;11.810;2024-03-23T22:17:01;11.90;72.10
42135;DHT22;28312;43.460;11.810;2024-03-23T22:21:04;11.90;72.20
42135;DHT22;28312;43.460;11.810;2024-03-23T22:25:07;11.90;72.40
42135;DHT22;28312;43.460;11.810;2024-03-23T22:29:10;11.90;72.40
42135;DHT22;28312;43.460;11.810;2024-03-23T22:33:13;11.90;72.50
42135;DHT22;28312;43.460;11.810;2024-03-23T22:37:16;11.80;72.40
42135;DHT22;28312;43.460;11.810;2024-03-23T22:41:19;11.80;72.40
42135;DHT22;28312;43.460;11.810;2024-03-23T22:45:21;11.70;72.20
42135;DHT22;28312;43.460;11.810;2024-03-23T22:49:24;11.70;72.50
42135;DHT22;28312;43.460;11.810;2024-03-23T22:53:28;11.70;72.70
42135;DHT22;28312;43.460;11.810;2024-03-23T22:57:30;11.60;72.60
42135;DHT22;28312;43.460;11.810;2024-03-23T23:01:33;11.60;72.60
42135;DHT22;28312;43.460;11.810;2024-03-23T23:05:36;11.60;72.80
42135;DHT22;28312;43.460;11.810;2024-03-23T23:09:39;11.50;72.80
42135;DHT22;28312;43.460;11.810;2024-03-23T23:13:42;11.40;72.70
42135;DHT22;28312;43.460;11.810;2024-03-23T23:17:44;11.40;72.60
42135;DHT22;28312;43.460;11.810;2024-03-23T23:21:47;11.30;72.50
42135;DHT22;28312;43.460;11.810;2024-03-23T23:25:50;11.30;72.60
42135;DHT22;28312;43.460;11.810;2024-03-23T23:29:55;11.30;72.60
42135;DHT22;28312;43.460;11.810;2024-03-23T23:33:57;11.20;73.00
42135;DHT22;28312;43.460;11.810;2024-03-23T23:38:01;11.20;73.00
42135;DHT22;28312;43.460;11.810;2024-03-23T23:42:04;11.20;73.40
42135;DHT22;28312;43.460;11.810;2024-03-23T23:46:07;11.30;73.70
42135;DHT22;28312;43.460;11.810;2024-03-23T23:50:10;11.20;73.70
42135;DHT22;28312;43.460;11.810;2024-03-23T23:54:12;11.20;73.50
42135;DHT22;28312;43.460;11.810;2024-03-23T23:58:15;11.20;73.20
